sensor_id;sensor_type;location;lat;lon;timestamp;P1;durP1;ratioP1;P2;durP2;ratioP2
6477;SDS011;3272;51.392;7.184;2023-05-28T06:20:41;12.83;;;6.47;;
6477;SDS011;3272;51.392;7.184;2023-05-28T06:23:07;11.00;;;7.40;;
6477;SDS011;3272;51.392;7.184;2023-05-28T06:25:32;10.13;;;6.67;;
6477;SDS011;3272;51.392;7.184;2023-05-28T06:28:00;11.87;;;6.77;;
6477;SDS011;3272;51.392;7.184;2023-05-28T06:30:26;10.67;;;6.67;;
6477;SDS011;3272;51.392;7.184;2023-05-28T06:32:51;8.60;;;6.30;;
6477;SDS011;3272;51.392;7.184;2023-05-28T06:35:17;10.13;;;6.80;;
6477;SDS011;3272;51.392;7.184;2023-05-28T06:37:43;13.20;;;6.93;;
6477;SDS011;3272;51.392;7.184;2023-05-28T06:40:09;9.80;;;6.27;;
6477;SDS011;3272;51.392;7.184;2023-05-28T06:42:35;11.17;;;6.53;;
6477;SDS011;3272;51.392;7.184;2023-05-28T06:45:02;10.10;;;5.73;;
6477;SDS011;3272;51.392;7.184;2023-05-28T06:47:28;12.33;;;7.50;;
6477;SDS011;3272;51.392;7.184;2023-05-28T06:49:54;10.13;;;6.77;;
6477;SDS011;3272;51.392;7.184;2023-05-28T06:52:20;11.50;;;6.60;;
6477;SDS011;3272;51.392;7.184;2023-05-28T06:54:46;11.97;;;6.60;;
6477;SDS011;3272;51.392;7.184;2023-05-28T06:57:12;14.53;;;6.83;;
6477;SDS011;3272;51.392;7.184;2023-05-28T06:59:38;11.53;;;6.77;;
6477;SDS011;3272;51.392;7.184;2023-05-28T07:02:03;9.13;;;6.73;;
6477;SDS011;3272;51.392;7.184;2023-05-28T07:04:29;12.63;;;7.10;;
6477;SDS011;3272;51.392;7.184;2023-05-28T07:06:55;14.40;;;7.60;;
6477;SDS011;3272;51.392;7.184;2023-05-28T07:09:20;12.83;;;7.27;;
6477;SDS011;3272;51.392;7.184;2023-05-28T07:11:46;10.83;;;6.53;;
6477;SDS011;3272;51.392;7.184;2023-05-28T07:14:12;11.83;;;6.97;;
6477;SDS011;3272;51.392;7.184;2023-05-28T07:16:37;11.47;;;6.40;;
6477;SDS011;3272;51.392;7.184;2023-05-28T07:19:03;12.10;;;6.47;;
6477;SDS011;3272;51.392;7.184;2023-05-28T07:21:29;11.73;;;6.03;;
6477;SDS011;3272;51.392;7.184;2023-05-28T07:23:56;9.60;;;6.50;;
6477;SDS011;3272;51.392;7.184;2023-05-28T07:26:22;11.63;;;6.50;;
6477;SDS011;3272;51.392;7.184;2023-05-28T07:28:47;11.43;;;6.13;;
6477;SDS011;3272;51.392;7.184;2023-05-28T07:31:13;9.47;;;6.43;;
6477;SDS011;3272;51.392;7.184;2023-05-28T07:33:39;11.03;;;5.70;;
6477;SDS011;3272;51.392;7.184;2023-05-28T07:36:04;12.10;;;6.33;;
6477;SDS011;3272;51.392;7.184;2023-05-28T07:38:31;13.43;;;6.80;;
6477;SDS011;3272;51.392;7.184;2023-05-28T07:40:56;12.43;;;6.90;;
6477;SDS011;3272;51.392;7.184;2023-05-28T07:43:22;14.57;;;6.90;;
6477;SDS011;3272;51.392;7.184;2023-05-28T07:45:47;9.63;;;6.00;;
6477;SDS011;3272;51.392;7.184;2023-05-28T07:48:13;11.03;;;6.00;;
6477;SDS011;3272;51.392;7.184;2023-05-28T07:50:39;7.63;;;4.87;;
6477;SDS011;3272;51.392;7.184;2023-05-28T07:53:06;8.53;;;5.70;;
6477;SDS011;3272;51.392;7.184;2023-05-28T07:55:31;10.43;;;6.00;;
6477;SDS011;3272;51.392;7.184;2023-05-28T07:57:57;9.53;;;5.50;;
6477;SDS011;3272;51.392;7.184;2023-05-28T08:00:24;9.57;;;5.23;;
6477;SDS011;3272;51.392;7.184;2023-05-28T08:02:51;7.27;;;4.63;;
6477;SDS011;3272;51.392;7.184;2023-05-28T08:05:17;10.70;;;5.40;;
6477;SDS011;3272;51.392;7.184;2023-05-28T08:07:43;12.87;;;5.20;;
6477;SDS011;3272;51.392;7.184;2023-05-28T08:10:09;7.47;;;5.00;;
6477;SDS011;3272;51.392;7.184;2023-05-28T08:12:35;9.47;;;5.23;;
6477;SDS011;3272;51.392;7.184;2023-05-28T08:15:01;8.17;;;5.00;;
6477;SDS011;3272;51.392;7.184;2023-05-28T08:17:29;7.50;;;5.37;;
6477;SDS011;3272;51.392;7.184;2023-05-28T08:19:59;12.43;;;4.77;;
6477;SDS011;3272;51.392;7.184;2023-05-28T08:22:25;8.73;;;5.50;;
6477;SDS011;3272;51.392;7.184;2023-05-28T08:24:50;7.47;;;5.07;;
6477;SDS011;3272;51.392;7.184;2023-05-28T08:27:16;9.57;;;4.77;;
6477;SDS011;3272;51.392;7.184;2023-05-28T08:29:42;8.33;;;5.17;;
6477;SDS011;3272;51.392;7.184;2023-05-28T08:32:07;9.43;;;5.33;;
6477;SDS011;3272;51.392;7.184;2023-05-28T08:34:33;6.80;;;4.33;;
6477;SDS011;3272;51.392;7.184;2023-05-28T08:37:02;11.07;;;5.60;;
6477;SDS011;3272;51.392;7.184;2023-05-28T08:39:32;8.63;;;5.13;;
6477;SDS011;3272;51.392;7.184;2023-05-28T08:41:57;9.63;;;4.83;;
6477;SDS011;3272;51.392;7.184;2023-05-28T08:44:23;7.97;;;4.53;;
6477;SDS011;3272;51.392;7.184;2023-05-28T08:46:49;7.20;;;4.60;;
6477;SDS011;3272;51.392;7.184;2023-05-28T08:49:16;9.07;;;5.17;;
6477;SDS011;3272;51.392;7.184;2023-05-28T08:51:43;9.23;;;4.90;;
6477;SDS011;3272;51.392;7.184;2023-05-28T08:54:14;9.33;;;4.93;;
6477;SDS011;3272;51.392;7.184;2023-05-28T08:56:40;8.23;;;4.80;;
6477;SDS011;3272;51.392;7.184;2023-05-28T08:59:07;7.87;;;4.33;;
6477;SDS011;3272;51.392;7.184;2023-05-28T09:01:35;8.20;;;4.30;;
6477;SDS011;3272;51.392;7.184;2023-05-28T09:04:02;11.43;;;4.27;;
6477;SDS011;3272;51.392;7.184;2023-05-28T09:06:29;9.67;;;3.90;;
6477;SDS011;3272;51.392;7.184;2023-05-28T09:08:56;10.53;;;4.00;;
6477;SDS011;3272;51.392;7.184;2023-05-28T09:11:22;8.53;;;4.67;;
6477;SDS011;3272;51.392;7.184;2023-05-28T09:13:48;8.97;;;4.30;;
6477;SDS011;3272;51.392;7.184;2023-05-28T09:16:23;9.57;;;4.47;;
6477;SDS011;3272;51.392;7.184;2023-05-28T09:18:50;5.47;;;3.80;;
6477;SDS011;3272;51.392;7.184;2023-05-28T09:21:18;10.37;;;4.60;;
6477;SDS011;3272;51.392;7.184;2023-05-28T09:23:45;8.83;;;4.53;;
6477;SDS011;3272;51.392;7.184;2023-05-28T09:26:15;8.60;;;4.23;;
6477;SDS011;3272;51.392;7.184;2023-05-28T09:28:41;8.50;;;4.47;;
6477;SDS011;3272;51.392;7.184;2023-05-28T09:31:10;8.30;;;3.50;;
6477;SDS011;3272;51.392;7.184;2023-05-28T09:33:42;6.73;;;3.70;;
6477;SDS011;3272;51.392;7.184;2023-05-28T09:36:09;6.23;;;3.67;;
6477;SDS011;3272;51.392;7.184;2023-05-28T09:38:38;9.67;;;3.90;;
6477;SDS011;3272;51.392;7.184;2023-05-28T09:41:05;10.90;;;3.53;;
6477;SDS011;3272;51.392;7.184;2023-05-28T09:43:42;7.73;;;4.07;;
6477;SDS011;3272;51.392;7.184;2023-05-28T09:46:08;7.97;;;3.60;;
6477;SDS011;3272;51.392;7.184;2023-05-28T09:48:34;8.73;;;4.23;;
6477;SDS011;3272;51.392;7.184;2023-05-28T09:51:02;7.93;;;4.07;;
6477;SDS011;3272;51.392;7.184;2023-05-28T09:53:30;6.00;;;3.57;;
6477;SDS011;3272;51.392;7.184;2023-05-28T09:56:01;5.23;;;3.30;;
6477;SDS011;3272;51.392;7.184;2023-05-28T09:58:32;6.50;;;3.63;;
6477;SDS011;3272;51.392;7.184;2023-05-28T10:01:03;10.93;;;4.17;;
6477;SDS011;3272;51.392;7.184;2023-05-28T10:03:35;6.07;;;3.60;;
6477;SDS011;3272;51.392;7.184;2023-05-28T10:06:04;8.90;;;3.60;;
6477;SDS011;3272;51.392;7.184;2023-05-28T10:08:36;10.27;;;3.40;;
6477;SDS011;3272;51.392;7.184;2023-05-28T10:11:04;6.27;;;3.80;;
6477;SDS011;3272;51.392;7.184;2023-05-28T10:13:33;7.10;;;3.43;;
6477;SDS011;3272;51.392;7.184;2023-05-28T10:16:00;7.90;;;3.57;;
6477;SDS011;3272;51.392;7.184;2023-05-28T10:18:26;8.83;;;3.57;;
6477;SDS011;3272;51.392;7.184;2023-05-28T10:20:52;8.77;;;3.97;;
6477;SDS011;3272;51.392;7.184;2023-05-28T10:23:19;5.93;;;3.30;;
6477;SDS011;3272;51.392;7.184;2023-05-28T10:25:45;6.17;;;3.30;;
6477;SDS011;3272;51.392;7.184;2023-05-28T10:28:15;8.17;;;3.67;;
6477;SDS011;3272;51.392;7.184;2023-05-28T10:30:41;5.83;;;3.30;;
6477;SDS011;3272;51.392;7.184;2023-05-28T10:33:08;9.10;;;3.77;;
6477;SDS011;3272;51.392;7.184;2023-05-28T10:35:51;7.23;;;3.93;;
6477;SDS011;3272;51.392;7.184;2023-05-28T10:38:21;5.27;;;3.07;;
6477;SDS011;3272;51.392;7.184;2023-05-28T10:40:47;5.60;;;3.50;;
6477;SDS011;3272;51.392;7.184;2023-05-28T10:46:11;7.40;;;2.90;;
6477;SDS011;3272;51.392;7.184;2023-05-28T10:49:05;9.33;;;3.97;;
6477;SDS011;3272;51.392;7.184;2023-05-28T10:51:46;5.03;;;3.27;;
6477;SDS011;3272;51.392;7.184;2023-05-28T11:02:12;7.93;;;3.83;;
6477;SDS011;3272;51.392;7.184;2023-05-28T11:04:56;7.53;;;3.93;;
6477;SDS011;3272;51.392;7.184;2023-05-28T11:07:30;5.10;;;3.63;;
6477;SDS011;3272;51.392;7.184;2023-05-28T11:10:00;5.53;;;3.50;;
6477;SDS011;3272;51.392;7.184;2023-05-28T11:12:28;7.10;;;3.73;;
6477;SDS011;3272;51.392;7.184;2023-05-28T11:14:55;8.30;;;3.87;;
6477;SDS011;3272;51.392;7.184;2023-05-28T11:17:21;6.43;;;3.87;;
6477;SDS011;3272;51.392;7.184;2023-05-28T11:19:47;8.33;;;3.80;;
6477;SDS011;3272;51.392;7.184;2023-05-28T11:22:15;5.70;;;4.07;;
6477;SDS011;3272;51.392;7.184;2023-05-28T11:24:55;5.57;;;4.20;;
6477;SDS011;3272;51.392;7.184;2023-05-28T11:27:29;8.63;;;3.80;;
6477;SDS011;3272;51.392;7.184;2023-05-28T11:29:57;4.93;;;3.30;;
6477;SDS011;3272;51.392;7.184;2023-05-28T11:32:24;8.07;;;3.43;;
6477;SDS011;3272;51.392;7.184;2023-05-28T11:34:52;7.40;;;3.73;;
6477;SDS011;3272;51.392;7.184;2023-05-28T11:37:22;5.63;;;3.53;;
6477;SDS011;3272;51.392;7.184;2023-05-28T11:39:51;7.13;;;3.70;;
6477;SDS011;3272;51.392;7.184;2023-05-28T11:42:18;7.73;;;3.40;;
6477;SDS011;3272;51.392;7.184;2023-05-28T11:44:45;7.97;;;3.50;;
6477;SDS011;3272;51.392;7.184;2023-05-28T11:47:11;7.10;;;3.00;;
6477;SDS011;3272;51.392;7.184;2023-05-28T11:49:38;8.97;;;3.80;;
6477;SDS011;3272;51.392;7.184;2023-05-28T11:52:04;5.83;;;3.57;;
6477;SDS011;3272;51.392;7.184;2023-05-28T11:54:30;6.93;;;2.80;;
6477;SDS011;3272;51.392;7.184;2023-05-28T11:56:55;5.20;;;2.93;;
6477;SDS011;3272;51.392;7.184;2023-05-28T11:59:21;6.63;;;3.23;;
6477;SDS011;3272;51.392;7.184;2023-05-28T12:01:51;9.47;;;3.20;;
6477;SDS011;3272;51.392;7.184;2023-05-28T12:04:21;6.93;;;2.83;;
6477;SDS011;3272;51.392;7.184;2023-05-28T12:06:54;8.03;;;3.70;;
6477;SDS011;3272;51.392;7.184;2023-05-28T12:09:20;5.90;;;2.93;;
6477;SDS011;3272;51.392;7.184;2023-05-28T12:12:06;5.97;;;3.40;;
6477;SDS011;3272;51.392;7.184;2023-05-28T12:14:35;5.23;;;2.80;;
6477;SDS011;3272;51.392;7.184;2023-05-28T12:17:06;5.60;;;2.90;;
6477;SDS011;3272;51.392;7.184;2023-05-28T12:19:38;5.50;;;2.50;;
6477;SDS011;3272;51.392;7.184;2023-05-28T12:22:04;6.50;;;2.90;;
6477;SDS011;3272;51.392;7.184;2023-05-28T12:24:50;8.10;;;3.23;;
6477;SDS011;3272;51.392;7.184;2023-05-28T12:27:18;5.90;;;3.00;;
6477;SDS011;3272;51.392;7.184;2023-05-28T12:29:45;5.13;;;2.87;;
6477;SDS011;3272;51.392;7.184;2023-05-28T12:32:11;5.70;;;2.67;;
6477;SDS011;3272;51.392;7.184;2023-05-28T12:34:36;6.57;;;3.00;;
6477;SDS011;3272;51.392;7.184;2023-05-28T12:37:02;4.90;;;3.40;;
6477;SDS011;3272;51.392;7.184;2023-05-28T12:39:29;5.47;;;3.33;;
6477;SDS011;3272;51.392;7.184;2023-05-28T12:41:55;8.43;;;3.00;;
6477;SDS011;3272;51.392;7.184;2023-05-28T12:44:20;5.43;;;2.90;;
6477;SDS011;3272;51.392;7.184;2023-05-28T12:46:46;7.33;;;3.33;;
6477;SDS011;3272;51.392;7.184;2023-05-28T12:49:12;4.90;;;3.00;;
6477;SDS011;3272;51.392;7.184;2023-05-28T12:51:38;4.40;;;2.97;;
6477;SDS011;3272;51.392;7.184;2023-05-28T12:54:04;6.17;;;3.03;;
6477;SDS011;3272;51.392;7.184;2023-05-28T12:56:31;3.60;;;2.40;;
6477;SDS011;3272;51.392;7.184;2023-05-28T12:58:57;7.13;;;3.20;;
6477;SDS011;3272;51.392;7.184;2023-05-28T13:01:23;6.20;;;3.20;;
6477;SDS011;3272;51.392;7.184;2023-05-28T13:03:50;6.37;;;3.07;;
6477;SDS011;3272;51.392;7.184;2023-05-28T13:06:16;4.77;;;3.00;;
6477;SDS011;3272;51.392;7.184;2023-05-28T13:08:42;8.47;;;2.83;;
6477;SDS011;3272;51.392;7.184;2023-05-28T13:11:08;7.50;;;3.03;;
6477;SDS011;3272;51.392;7.184;2023-05-28T13:13:34;6.30;;;3.33;;
6477;SDS011;3272;51.392;7.184;2023-05-28T13:15:59;4.37;;;2.77;;
6477;SDS011;3272;51.392;7.184;2023-05-28T13:18:25;4.77;;;3.10;;
6477;SDS011;3272;51.392;7.184;2023-05-28T13:20:50;5.10;;;3.17;;
6477;SDS011;3272;51.392;7.184;2023-05-28T13:23:16;5.33;;;3.23;;
6477;SDS011;3272;51.392;7.184;2023-05-28T13:25:42;7.53;;;3.17;;
6477;SDS011;3272;51.392;7.184;2023-05-28T13:28:07;6.37;;;3.03;;
6477;SDS011;3272;51.392;7.184;2023-05-28T13:30:33;7.70;;;3.20;;
6477;SDS011;3272;51.392;7.184;2023-05-28T13:32:59;6.63;;;2.87;;
6477;SDS011;3272;51.392;7.184;2023-05-28T13:35:24;5.77;;;2.93;;
6477;SDS011;3272;51.392;7.184;2023-05-28T13:37:50;5.33;;;2.67;;
6477;SDS011;3272;51.392;7.184;2023-05-28T13:40:17;3.87;;;2.60;;
6477;SDS011;3272;51.392;7.184;2023-05-28T13:42:45;4.77;;;2.70;;
6477;SDS011;3272;51.392;7.184;2023-05-28T13:45:13;4.80;;;2.70;;
6477;SDS011;3272;51.392;7.184;2023-05-28T13:47:39;4.63;;;2.40;;
6477;SDS011;3272;51.392;7.184;2023-05-28T13:50:05;4.10;;;2.47;;
6477;SDS011;3272;51.392;7.184;2023-05-28T13:52:31;3.90;;;2.50;;
6477;SDS011;3272;51.392;7.184;2023-05-28T13:54:57;4.67;;;2.90;;
6477;SDS011;3272;51.392;7.184;2023-05-28T13:57:22;5.17;;;2.73;;
6477;SDS011;3272;51.392;7.184;2023-05-28T13:59:48;6.00;;;2.87;;
6477;SDS011;3272;51.392;7.184;2023-05-28T14:02:13;4.80;;;2.63;;
6477;SDS011;3272;51.392;7.184;2023-05-28T14:04:39;4.30;;;2.53;;
6477;SDS011;3272;51.392;7.184;2023-05-28T14:07:05;5.33;;;2.80;;
6477;SDS011;3272;51.392;7.184;2023-05-28T14:09:31;6.60;;;2.80;;
6477;SDS011;3272;51.392;7.184;2023-05-28T14:11:56;5.83;;;3.13;;
6477;SDS011;3272;51.392;7.184;2023-05-28T14:14:22;4.53;;;2.90;;
6477;SDS011;3272;51.392;7.184;2023-05-28T14:16:48;5.67;;;3.00;;
6477;SDS011;3272;51.392;7.184;2023-05-28T14:19:14;5.10;;;2.77;;
6477;SDS011;3272;51.392;7.184;2023-05-28T14:21:40;5.30;;;2.90;;
6477;SDS011;3272;51.392;7.184;2023-05-28T14:24:06;5.63;;;2.70;;
6477;SDS011;3272;51.392;7.184;2023-05-28T14:26:32;4.83;;;2.57;;
6477;SDS011;3272;51.392;7.184;2023-05-28T14:28:58;6.27;;;2.63;;
6477;SDS011;3272;51.392;7.184;2023-05-28T14:31:24;5.27;;;2.97;;
6477;SDS011;3272;51.392;7.184;2023-05-28T14:33:49;5.10;;;2.80;;
6477;SDS011;3272;51.392;7.184;2023-05-28T14:36:15;5.87;;;3.23;;
6477;SDS011;3272;51.392;7.184;2023-05-28T14:38:40;4.33;;;2.70;;
6477;SDS011;3272;51.392;7.184;2023-05-28T14:41:06;5.50;;;3.20;;
6477;SDS011;3272;51.392;7.184;2023-05-28T14:43:32;4.47;;;3.07;;
6477;SDS011;3272;51.392;7.184;2023-05-28T14:45:57;6.40;;;2.50;;
6477;SDS011;3272;51.392;7.184;2023-05-28T14:48:23;2.90;;;2.40;;
6477;SDS011;3272;51.392;7.184;2023-05-28T14:50:49;2.90;;;2.07;;
6477;SDS011;3272;51.392;7.184;2023-05-28T14:53:14;5.97;;;3.00;;
6477;SDS011;3272;51.392;7.184;2023-05-28T14:55:40;5.83;;;2.80;;
6477;SDS011;3272;51.392;7.184;2023-05-28T14:58:06;8.00;;;3.07;;
6477;SDS011;3272;51.392;7.184;2023-05-28T15:00:32;6.43;;;2.83;;
6477;SDS011;3272;51.392;7.184;2023-05-28T15:02:58;6.43;;;2.90;;
6477;SDS011;3272;51.392;7.184;2023-05-28T15:05:24;3.73;;;2.70;;
6477;SDS011;3272;51.392;7.184;2023-05-28T15:07:51;6.47;;;2.87;;
6477;SDS011;3272;51.392;7.184;2023-05-28T15:10:17;8.93;;;3.27;;
6477;SDS011;3272;51.392;7.184;2023-05-28T15:12:42;4.63;;;2.80;;
6477;SDS011;3272;51.392;7.184;2023-05-28T15:15:08;4.10;;;2.40;;
6477;SDS011;3272;51.392;7.184;2023-05-28T15:17:34;5.30;;;2.77;;
6477;SDS011;3272;51.392;7.184;2023-05-28T15:19:59;5.20;;;2.93;;
6477;SDS011;3272;51.392;7.184;2023-05-28T15:22:25;3.53;;;2.83;;
6477;SDS011;3272;51.392;7.184;2023-05-28T15:24:51;5.70;;;2.97;;
6477;SDS011;3272;51.392;7.184;2023-05-28T15:27:16;4.63;;;2.87;;
6477;SDS011;3272;51.392;7.184;2023-05-28T15:29:42;3.93;;;2.90;;
6477;SDS011;3272;51.392;7.184;2023-05-28T15:32:09;5.17;;;2.80;;
6477;SDS011;3272;51.392;7.184;2023-05-28T15:34:36;5.03;;;2.67;;
6477;SDS011;3272;51.392;7.184;2023-05-28T15:37:03;4.57;;;3.00;;
6477;SDS011;3272;51.392;7.184;2023-05-28T15:39:28;4.23;;;2.63;;
6477;SDS011;3272;51.392;7.184;2023-05-28T15:41:54;7.70;;;3.23;;
6477;SDS011;3272;51.392;7.184;2023-05-28T15:44:22;5.67;;;2.53;;
6477;SDS011;3272;51.392;7.184;2023-05-28T15:46:48;7.43;;;3.30;;
6477;SDS011;3272;51.392;7.184;2023-05-28T15:49:14;5.77;;;3.33;;
6477;SDS011;3272;51.392;7.184;2023-05-28T15:51:40;5.93;;;3.30;;
6477;SDS011;3272;51.392;7.184;2023-05-28T15:54:05;5.83;;;3.10;;
6477;SDS011;3272;51.392;7.184;2023-05-28T15:56:31;3.93;;;2.77;;
6477;SDS011;3272;51.392;7.184;2023-05-28T15:58:57;6.00;;;2.43;;
6477;SDS011;3272;51.392;7.184;2023-05-28T16:01:22;6.73;;;3.50;;
6477;SDS011;3272;51.392;7.184;2023-05-28T16:03:49;5.80;;;3.03;;
6477;SDS011;3272;51.392;7.184;2023-05-28T16:06:16;4.73;;;2.93;;
6477;SDS011;3272;51.392;7.184;2023-05-28T16:08:42;4.80;;;2.87;;
6477;SDS011;3272;51.392;7.184;2023-05-28T16:11:09;4.83;;;3.03;;
6477;SDS011;3272;51.392;7.184;2023-05-28T16:13:38;4.87;;;2.77;;
6477;SDS011;3272;51.392;7.184;2023-05-28T16:16:06;5.47;;;2.93;;
6477;SDS011;3272;51.392;7.184;2023-05-28T16:18:32;7.30;;;3.10;;
6477;SDS011;3272;51.392;7.184;2023-05-28T16:20:59;6.10;;;3.20;;
6477;SDS011;3272;51.392;7.184;2023-05-28T16:23:25;3.73;;;2.60;;
6477;SDS011;3272;51.392;7.184;2023-05-28T16:25:51;5.70;;;2.90;;
6477;SDS011;3272;51.392;7.184;2023-05-28T16:28:17;7.43;;;3.17;;
6477;SDS011;3272;51.392;7.184;2023-05-28T16:30:44;7.53;;;3.27;;
6477;SDS011;3272;51.392;7.184;2023-05-28T16:33:10;6.27;;;3.87;;
6477;SDS011;3272;51.392;7.184;2023-05-28T16:35:35;5.60;;;3.30;;
6477;SDS011;3272;51.392;7.184;2023-05-28T16:38:01;7.97;;;3.43;;
6477;SDS011;3272;51.392;7.184;2023-05-28T16:40:27;8.60;;;3.33;;
6477;SDS011;3272;51.392;7.184;2023-05-28T16:42:53;9.60;;;3.20;;
6477;SDS011;3272;51.392;7.184;2023-05-28T16:45:21;5.47;;;3.03;;
6477;SDS011;3272;51.392;7.184;2023-05-28T16:47:47;5.87;;;3.03;;
6477;SDS011;3272;51.392;7.184;2023-05-28T16:50:13;8.43;;;3.27;;
6477;SDS011;3272;51.392;7.184;2023-05-28T16:52:41;5.07;;;3.10;;
6477;SDS011;3272;51.392;7.184;2023-05-28T16:55:07;6.20;;;3.33;;
6477;SDS011;3272;51.392;7.184;2023-05-28T16:57:33;6.77;;;3.40;;
6477;SDS011;3272;51.392;7.184;2023-05-28T17:00:00;6.80;;;3.00;;
6477;SDS011;3272;51.392;7.184;2023-05-28T17:02:31;5.17;;;3.00;;
6477;SDS011;3272;51.392;7.184;2023-05-28T17:04:57;6.73;;;2.83;;
6477;SDS011;3272;51.392;7.184;2023-05-28T17:07:23;5.60;;;3.03;;
6477;SDS011;3272;51.392;7.184;2023-05-28T17:09:49;6.67;;;3.43;;
6477;SDS011;3272;51.392;7.184;2023-05-28T17:12:14;5.37;;;3.20;;
6477;SDS011;3272;51.392;7.184;2023-05-28T17:14:40;5.67;;;3.20;;
6477;SDS011;3272;51.392;7.184;2023-05-28T17:17:06;7.30;;;3.20;;
6477;SDS011;3272;51.392;7.184;2023-05-28T17:19:32;4.70;;;3.07;;
6477;SDS011;3272;51.392;7.184;2023-05-28T17:21:58;6.47;;;3.17;;
6477;SDS011;3272;51.392;7.184;2023-05-28T17:24:24;6.07;;;3.10;;
6477;SDS011;3272;51.392;7.184;2023-05-28T17:26:50;7.00;;;3.50;;
6477;SDS011;3272;51.392;7.184;2023-05-28T17:29:15;4.40;;;3.00;;
6477;SDS011;3272;51.392;7.184;2023-05-28T17:31:41;7.63;;;3.30;;
6477;SDS011;3272;51.392;7.184;2023-05-28T17:34:07;7.03;;;3.57;;
6477;SDS011;3272;51.392;7.184;2023-05-28T17:36:33;6.20;;;3.33;;
6477;SDS011;3272;51.392;7.184;2023-05-28T17:38:58;4.03;;;3.17;;
6477;SDS011;3272;51.392;7.184;2023-05-28T17:41:25;7.23;;;3.60;;
6477;SDS011;3272;51.392;7.184;2023-05-28T17:43:51;6.17;;;3.57;;
6477;SDS011;3272;51.392;7.184;2023-05-28T17:46:16;8.33;;;3.50;;
6477;SDS011;3272;51.392;7.184;2023-05-28T17:48:42;6.23;;;3.47;;
6477;SDS011;3272;51.392;7.184;2023-05-28T17:51:08;9.10;;;3.90;;
6477;SDS011;3272;51.392;7.184;2023-05-28T17:53:33;6.90;;;3.70;;
6477;SDS011;3272;51.392;7.184;2023-05-28T17:55:59;6.37;;;3.53;;
6477;SDS011;3272;51.392;7.184;2023-05-28T17:58:25;5.07;;;3.30;;
6477;SDS011;3272;51.392;7.184;2023-05-28T18:00:50;7.90;;;3.37;;
6477;SDS011;3272;51.392;7.184;2023-05-28T18:03:16;7.13;;;3.70;;
6477;SDS011;3272;51.392;7.184;2023-05-28T18:05:43;8.67;;;3.80;;
6477;SDS011;3272;51.392;7.184;2023-05-28T18:08:09;7.10;;;3.47;;
6477;SDS011;3272;51.392;7.184;2023-05-28T18:10:35;9.33;;;3.87;;
6477;SDS011;3272;51.392;7.184;2023-05-28T18:13:01;5.23;;;3.63;;
6477;SDS011;3272;51.392;7.184;2023-05-28T18:15:27;6.67;;;3.50;;
6477;SDS011;3272;51.392;7.184;2023-05-28T18:17:54;5.93;;;3.63;;
6477;SDS011;3272;51.392;7.184;2023-05-28T18:20:20;7.57;;;3.63;;
6477;SDS011;3272;51.392;7.184;2023-05-28T18:22:46;7.53;;;4.07;;
6477;SDS011;3272;51.392;7.184;2023-05-28T18:25:12;7.17;;;3.50;;
6477;SDS011;3272;51.392;7.184;2023-05-28T18:27:38;7.77;;;3.60;;
6477;SDS011;3272;51.392;7.184;2023-05-28T18:30:05;12.47;;;4.80;;
6477;SDS011;3272;51.392;7.184;2023-05-28T18:32:32;5.03;;;3.53;;
6477;SDS011;3272;51.392;7.184;2023-05-28T18:34:58;10.43;;;4.33;;
6477;SDS011;3272;51.392;7.184;2023-05-28T18:37:23;6.07;;;4.23;;
6477;SDS011;3272;51.392;7.184;2023-05-28T18:39:49;7.80;;;3.70;;
6477;SDS011;3272;51.392;7.184;2023-05-28T18:42:18;8.43;;;4.37;;
6477;SDS011;3272;51.392;7.184;2023-05-28T18:44:43;7.13;;;3.50;;
6477;SDS011;3272;51.392;7.184;2023-05-28T18:47:09;7.33;;;3.57;;
6477;SDS011;3272;51.392;7.184;2023-05-28T18:49:35;7.43;;;3.80;;
6477;SDS011;3272;51.392;7.184;2023-05-28T18:52:01;7.37;;;3.73;;
6477;SDS011;3272;51.392;7.184;2023-05-28T18:54:31;7.60;;;4.20;;
6477;SDS011;3272;51.392;7.184;2023-05-28T18:56:57;6.53;;;3.83;;
6477;SDS011;3272;51.392;7.184;2023-05-28T18:59:24;7.37;;;3.83;;
6477;SDS011;3272;51.392;7.184;2023-05-28T19:01:51;12.80;;;3.90;;
6477;SDS011;3272;51.392;7.184;2023-05-28T19:04:17;6.57;;;3.93;;
6477;SDS011;3272;51.392;7.184;2023-05-28T19:06:43;8.50;;;3.90;;
6477;SDS011;3272;51.392;7.184;2023-05-28T19:09:09;6.37;;;3.97;;
6477;SDS011;3272;51.392;7.184;2023-05-28T19:11:35;7.47;;;3.90;;
6477;SDS011;3272;51.392;7.184;2023-05-28T19:14:01;7.43;;;3.80;;
6477;SDS011;3272;51.392;7.184;2023-05-28T19:16:27;6.23;;;3.70;;
6477;SDS011;3272;51.392;7.184;2023-05-28T19:18:54;7.00;;;3.70;;
6477;SDS011;3272;51.392;7.184;2023-05-28T19:21:20;6.03;;;3.50;;
6477;SDS011;3272;51.392;7.184;2023-05-28T19:23:46;9.13;;;4.83;;
6477;SDS011;3272;51.392;7.184;2023-05-28T19:26:11;6.70;;;3.67;;
6477;SDS011;3272;51.392;7.184;2023-05-28T19:28:39;6.80;;;4.10;;
6477;SDS011;3272;51.392;7.184;2023-05-28T19:31:07;7.37;;;3.93;;
6477;SDS011;3272;51.392;7.184;2023-05-28T19:33:33;8.53;;;3.97;;
6477;SDS011;3272;51.392;7.184;2023-05-28T19:35:59;4.90;;;3.43;;
6477;SDS011;3272;51.392;7.184;2023-05-28T19:38:25;10.23;;;4.13;;
6477;SDS011;3272;51.392;7.184;2023-05-28T19:40:51;6.57;;;4.17;;
6477;SDS011;3272;51.392;7.184;2023-05-28T19:43:19;8.90;;;4.60;;
6477;SDS011;3272;51.392;7.184;2023-05-28T19:45:45;9.37;;;4.20;;
6477;SDS011;3272;51.392;7.184;2023-05-28T19:48:11;9.50;;;3.90;;
6477;SDS011;3272;51.392;7.184;2023-05-28T19:50:37;8.60;;;4.47;;
